Terminal Aerodrome Forecast
Issued by NWS

Home | Current Version | Previous Version | Graphics & Text | Print | Product List | Glossary On
Versions: 1 2 3 4 5 6 7 8 9 10 11 12 13 14 15
000
FTUS41 KCLE 281100
TAFFDY
TAF
KFDY 281132Z 2812/2912 28010KT P6SM SCT019 OVC025
     FM281500 31010KT P6SM OVC035
      TEMPO 2815/2818 BKN025 OVC035
     FM282200 30005KT P6SM BKN250=

USA.gov is the U.S. government's official web portal to all federal, state and local government web resources and services.